Skip to main content.
 TIME   TEMPERATURE   WINDSPEED   DIRECTION   HUMIDITY   BAROMETER   RAINFALL 
20:05 14.0°C (57.2°F) 13.0 kmh (8.1 mph) SE 100% 1022.0hPa (30.18 inHg) 0.0mm (0.00 in.)
19:05 15.0°C (59.0 °F) 13.0 kmh (8.1 mph) SE 93% 1022.0hPa (30.18 inHg) 0.0mm (0.00 in.)
18:05 15.0°C (59.0 °F) 14.8 kmh (9.2 mph) SE 93% 1022.0hPa (30.18 inHg) 0.0mm (0.00 in.)
17:05 16.0°C (60.8 °F) 14.8 kmh (9.2 mph) SSE 87% 1022.0hPa (30.18 inHg) 0.0mm (0.00 in.)
16:05 16.0°C (60.8 °F) 16.7 kmh (10.4 mph) SSE 87% 1022.0hPa (30.18 inHg) 0.0mm (0.00 in.)
15:05 16.0°C (60.8 °F) 20.4 kmh (12.7 mph) SSE 87% 1023.0hPa (30.21 inHg) 0.0mm (0.00 in.)
14:05 17.0°C (62.6 °F) 20.4 kmh (12.7 mph) SSE 82% 1023.0hPa (30.21 inHg) 0.0mm (0.00 in.)
13:05 17.0°C (62.6 °F) 24.1 kmh (15.0 mph) SSE 82% 1024.0hPa (30.24 inHg) 0.0mm (0.00 in.)
12:05 17.0°C (62.6 °F) 24.1 kmh (15.0 mph) SSE 82% 1025.1hPa (30.27 inHg) 0.0mm (0.00 in.)
11:05 16.0°C (60.8 °F) 24.1 kmh (15.0 mph) SSE 87% 1025.1hPa (30.27 inHg) 0.0mm (0.00 in.)
10:05 16.0°C (60.8 °F) 22.2 kmh (13.8 mph) SSE 87% 1026.1hPa (30.30 inHg) 0.0mm (0.00 in.)
9:05 15.0°C (59.0 °F) 16.7 kmh (10.4 mph) SSE 93% 1025.1hPa (30.27 inHg) 0.0mm (0.00 in.)
8:05 15.0°C (59.0 °F) 16.7 kmh (10.4 mph) SSE 87% 1025.1hPa (30.27 inHg) 0.0mm (0.00 in.)
7:05 15.0°C (59.0 °F) 18.5 kmh (11.5 mph) SSE 87% 1025.1hPa (30.27 inHg) 0.0mm (0.00 in.)
6:05 15.0°C (59.0 °F) 20.4 kmh (12.7 mph) S 82% 1024.0hPa (30.24 inHg) 0.0mm (0.00 in.)
5:05 15.0°C (59.0 °F) 24.1 kmh (15.0 mph) SSE 82% 1024.0hPa (30.24 inHg) 0.0mm (0.00 in.)
4:05 15.0°C (59.0 °F) 24.1 kmh (15.0 mph) SSE 82% 1024.0hPa (30.24 inHg) 0.0mm (0.00 in.)
3:05 15.0°C (59.0 °F) 20.4 kmh (12.7 mph) SSE 82% 1025.1hPa (30.27 inHg) 0.0mm (0.00 in.)
2:05 14.0°C (57.2 °F) 25.9 kmh (16.1 mph) SSE 87% 1025.1hPa (30.27 inHg) 0.0mm (0.00 in.)
1:05 14.0°C (57.2 °F) 24.1 kmh (15.0 mph) SSE 82% 1025.1hPa (30.27 inHg) 0.0mm (0.00 in.)
0:05 14.0°C (57.2 °F) 25.9 kmh (16.1 mph) SSE 87% 1026.1hPa (30.30 inHg) 0.0mm (0.00 in.)
23:05 14.0°C (57.2 °F) 24.1 kmh (15.0 mph) SSE 87% 1026.1hPa (30.30 inHg) 0.0mm (0.00 in.)
22:05 14.0°C (57.2 °F) 24.1 kmh (15.0 mph) SSE 82% 1026.1hPa (30.30 inHg) 0.0mm (0.00 in.)
21:05 14.0°C (57.2 °F) 24.1 kmh (15.0 mph) SE 82% 1026.1hPa (30.30 inHg) 0.0mm (0.00 in.)